Terminal Aerodrome Forecast
Issued by NWS Mt. Holly, NJ

Home | Current Version | Previous Version | Text Only | Print | Product List | Glossary On
Versions: 1 2 3 4 5 6 7 8 9 10 11 12 13 14 15 16 17 18 19 20 21 22 23 24 25 26 27 28 29 30 31
000
FTUS41 KPHI 021505 CCA
TAFABE
TAF COR
KABE 021505Z 0215/0312 05007KT 3SM -RA BR OVC010
      TEMPO 0215/0218 5SM BR OVC035
     FM021800 04006KT P6SM BKN010
     FM030400 06005KT 4SM BR OVC007=

USA.gov is the U.S. government's official web portal to all federal, state and local government web resources and services.